createdAt,value
2016-05-24T00:00:19.529Z,76.98
2016-05-24T00:01:20.297Z,77.65
2016-05-24T00:02:19.957Z,77.36
2016-05-24T00:03:19.537Z,77.65
2016-05-24T00:04:19.540Z,78.03
2016-05-24T00:06:19.811Z,77.75
2016-05-24T00:07:19.578Z,77.55
2016-05-24T00:08:19.597Z,77.55
2016-05-24T00:09:19.584Z,77.65
2016-05-24T00:10:19.618Z,77.65
2016-05-24T00:11:19.636Z,77.75
2016-05-24T00:12:19.670Z,77.94
2016-05-24T00:13:19.861Z,77.75
2016-05-24T00:14:19.988Z,77.55
2016-05-24T00:15:19.756Z,77.75
2016-05-24T00:16:33.728Z,77.65
2016-05-24T00:17:19.903Z,77.26
2016-05-24T00:18:19.671Z,77.75
2016-05-24T00:19:20.127Z,77.75
2016-05-24T00:20:19.708Z,77.75
2016-05-24T00:21:19.695Z,77.46
2016-05-24T00:22:33.775Z,77.36
2016-05-24T00:23:19.716Z,77.65
2016-05-24T00:24:19.765Z,77.55
2016-05-24T00:25:19.924Z,77.36
2016-05-24T00:26:19.754Z,77.26
2016-05-24T00:27:19.758Z,76.89
2016-05-24T00:28:19.760Z,77.36
2016-05-24T00:29:19.779Z,77.65
2016-05-24T00:30:20.000Z,76.98
2016-05-24T00:31:19.769Z,76.98
2016-05-24T00:32:19.787Z,77.17
2016-05-24T00:33:19.790Z,77.26
2016-05-24T00:34:19.807Z,77.17
2016-05-24T00:35:19.810Z,76.79
2016-05-24T00:36:19.812Z,77.94
2016-05-24T00:37:19.847Z,77.36
2016-05-24T00:38:20.240Z,77.65
2016-05-24T00:39:20.040Z,77.75
2016-05-24T00:40:20.090Z,77.75
2016-05-24T00:41:20.264Z,77.65
2016-05-24T00:42:20.126Z,77.84
2016-05-24T00:43:20.081Z,77.94
2016-05-24T00:44:20.569Z,77.84
2016-05-24T00:45:33.978Z,77.84
2016-05-24T00:46:20.512Z,78.03
2016-05-24T00:47:19.952Z,78.13
2016-05-24T00:48:20.002Z,78.32
2016-05-24T00:49:19.973Z,77.94
2016-05-24T00:50:19.930Z,77.94
2016-05-24T00:51:19.963Z,77.75
2016-05-24T00:52:19.966Z,77.84
2016-05-24T00:53:20.015Z,78.32
2016-05-24T00:54:20.018Z,78.22
2016-05-24T00:55:19.989Z,78.22
2016-05-24T00:56:20.008Z,78.03
2016-05-24T00:57:20.026Z,77.84
2016-05-24T00:58:20.013Z,77.84
2016-05-24T00:59:20.015Z,78.42
2016-05-24T01:00:20.060Z,78.13
2016-05-24T01:01:20.091Z,77.94
2016-05-24T01:02:20.122Z,77.75
2016-05-24T01:03:20.154Z,78.13
2016-05-24T01:04:20.184Z,77.94
2016-05-24T01:05:20.224Z,77.46
2016-05-24T01:06:20.237Z,77.84
2016-05-24T01:07:20.468Z,77.65
2016-05-24T01:08:20.279Z,77.55
2016-05-24T01:09:20.542Z,77.65
2016-05-24T01:10:20.536Z,77.65
2016-05-24T01:11:20.542Z,77.26
2016-05-24T01:12:20.361Z,77.75
2016-05-24T01:13:20.352Z,77.36
2016-05-24T01:14:20.593Z,77.75
2016-05-24T01:15:20.365Z,77.75
2016-05-24T01:16:20.383Z,77.94
2016-05-24T01:17:20.419Z,77.78
2016-05-24T01:18:20.407Z,77.75
2016-05-24T01:19:20.441Z,77.69
2016-05-24T01:20:20.414Z,77.46
2016-05-24T01:22:20.451Z,77.69
2016-05-24T01:23:20.893Z,77.84
2016-05-24T01:24:20.645Z,77.75
2016-05-24T01:25:20.680Z,77.65
2016-05-24T01:26:20.698Z,77.84
2016-05-24T01:27:20.545Z,77.75
2016-05-24T01:28:20.485Z,77.88
2016-05-24T01:29:20.989Z,77.65
2016-05-24T01:30:20.960Z,77.75
2016-05-24T01:31:20.526Z,77.65
2016-05-24T01:32:20.529Z,77.5
2016-05-24T01:33:20.766Z,77.69
2016-05-24T01:34:20.596Z,77.4
2016-05-24T01:35:20.567Z,77.59
2016-05-24T01:36:20.569Z,77.88
2016-05-24T01:37:20.433Z,77.5
2016-05-24T01:38:20.608Z,77.69
2016-05-24T01:39:20.782Z,77.69
2016-05-24T01:40:20.613Z,77.84
2016-05-24T01:41:20.630Z,77.69
2016-05-24T01:42:20.821Z,77.69
2016-05-24T01:43:20.682Z,77.55
2016-05-24T01:44:20.686Z,77.59
2016-05-24T01:45:20.860Z,77.94
2016-05-24T01:46:20.644Z,77.55
2016-05-24T01:47:20.865Z,77.88
2016-05-24T01:48:20.649Z,77.97
2016-05-24T01:49:34.965Z,77.46
2016-05-24T01:50:20.671Z,77.97
2016-05-24T01:51:20.689Z,77.88
2016-05-24T01:52:20.567Z,77.75
2016-05-24T01:53:20.553Z,77.75
2016-05-24T01:54:20.775Z,77.69
2016-05-24T01:55:20.278Z,77.5
2016-05-24T01:56:20.781Z,77.69
2016-05-24T01:57:20.767Z,77.59
2016-05-24T01:58:20.786Z,77.78
2016-05-24T01:59:20.617Z,77.36
2016-05-24T02:00:20.776Z,77.88
2016-05-24T02:01:20.981Z,77.97
2016-05-24T02:02:20.781Z,77.69
2016-05-24T02:03:20.799Z,77.78
2016-05-24T02:04:21.020Z,77.55
2016-05-24T02:05:20.819Z,77.5
2016-05-24T02:06:20.667Z,77.69
2016-05-24T02:07:20.842Z,77.97
2016-05-24T02:08:20.844Z,78.07
2016-05-24T02:09:21.065Z,77.97
2016-05-24T02:10:21.271Z,77.78
2016-05-24T02:11:20.868Z,77.75
2016-05-24T02:12:20.605Z,77.5
2016-05-24T02:13:21.499Z,77.59
2016-05-24T02:14:21.282Z,77.97
2016-05-24T02:16:20.927Z,77.97
2016-05-24T02:17:20.930Z,77.88
2016-05-24T02:18:20.933Z,78.03
2016-05-24T02:19:35.045Z,77.69
2016-05-24T02:20:21.174Z,77.94
2016-05-24T02:22:20.975Z,78.17
2016-05-24T02:23:20.978Z,78.07
2016-05-24T02:24:21.012Z,78.27
2016-05-24T02:25:21.390Z,77.75
2016-05-24T02:26:21.001Z,77.75
2016-05-24T02:27:21.020Z,78.03
2016-05-24T02:28:21.226Z,77.59
2016-05-24T02:29:20.870Z,77.78
2016-05-24T02:30:21.215Z,77.75
2016-05-24T02:31:21.031Z,77.4
2016-05-24T02:32:21.033Z,77.69
2016-05-24T02:33:21.052Z,77.84
2016-05-24T02:34:35.163Z,77.88
2016-05-24T02:35:21.058Z,78.45
2016-05-24T02:36:21.106Z,78.36
2016-05-24T02:37:21.109Z,78.51
2016-05-24T02:38:20.940Z,78.32
2016-05-24T02:39:21.114Z,78.22
2016-05-24T02:40:21.149Z,78.61
2016-05-24T02:41:21.152Z,78.42
2016-05-24T02:42:21.358Z,78.42
2016-05-24T02:43:21.157Z,78.51
2016-05-24T02:44:21.237Z,78.45
2016-05-24T02:45:21.240Z,78.61
2016-05-24T02:46:21.087Z,78.42
2016-05-24T02:47:21.793Z,78.42
2016-05-24T02:48:21.186Z,78.32
2016-05-24T02:49:21.188Z,78.32
2016-05-24T02:50:21.238Z,78.42
2016-05-24T02:51:21.131Z,78.42
2016-05-24T02:52:21.415Z,78.32
2016-05-24T02:53:21.199Z,78.42
2016-05-24T02:54:21.437Z,78.51
2016-05-24T02:55:21.642Z,78.22
2016-05-24T02:56:21.442Z,78.8
2016-05-24T02:57:20.804Z,78.22
2016-05-24T02:58:21.291Z,78.22
2016-05-24T02:59:21.372Z,78.42
2016-05-24T03:00:35.375Z,78.89
2016-05-24T03:01:21.173Z,78.32
2016-05-24T03:02:21.317Z,78.42
2016-05-24T03:03:21.711Z,78.22
2016-05-24T03:04:21.386Z,78.93
2016-05-24T03:05:21.544Z,78.89
2016-05-24T03:06:21.219Z,79.18
2016-05-24T03:07:21.362Z,79.18
2016-05-24T03:08:21.224Z,78.89
2016-05-24T03:09:21.414Z,79.08
2016-05-24T03:10:21.370Z,78.89
2016-05-24T03:11:21.575Z,78.99
2016-05-24T03:12:21.391Z,78.99
2016-05-24T03:13:21.393Z,78.7
2016-05-24T03:15:21.258Z,78.74
2016-05-24T03:16:21.886Z,79.03
2016-05-24T03:17:21.452Z,78.99
2016-05-24T03:18:21.423Z,78.89
2016-05-24T03:19:21.643Z,78.27
2016-05-24T03:20:21.506Z,78.8
2016-05-24T03:21:21.524Z,78.89
2016-05-24T03:22:35.559Z,78.84
2016-05-24T03:23:21.718Z,78.93
2016-05-24T03:25:21.551Z,78.93
2016-05-24T03:26:21.523Z,78.93
2016-05-24T03:27:21.947Z,79.13
2016-05-24T03:28:21.731Z,79.03
2016-05-24T03:29:21.828Z,78.74
2016-05-24T03:30:21.548Z,78.89
2016-05-24T03:31:21.598Z,78.93
2016-05-24T03:32:21.757Z,78.74
2016-05-24T03:33:21.978Z,79.22
2016-05-24T03:34:21.575Z,79.03
2016-05-24T03:35:21.797Z,78.64
2016-05-24T03:36:21.596Z,78.93
2016-05-24T03:37:21.615Z,78.93
2016-05-24T03:38:21.820Z,78.74
2016-05-24T03:39:21.683Z,78.74
2016-05-24T03:40:35.716Z,79.03
2016-05-24T03:41:21.672Z,78.84
2016-05-24T03:42:21.658Z,79.22
2016-05-24T03:43:21.897Z,78.84
2016-05-24T03:44:21.914Z,79.13
2016-05-24T03:45:21.714Z,78.84
2016-05-24T03:46:21.701Z,78.36
2016-05-24T03:47:21.719Z,79.03
2016-05-24T03:48:21.706Z,79.13
2016-05-24T03:49:21.725Z,79.22
2016-05-24T03:50:21.727Z,78.93
2016-05-24T03:51:21.730Z,78.93
2016-05-24T03:52:21.748Z,78.93
2016-05-24T03:53:21.752Z,78.74
2016-05-24T03:54:21.754Z,78.74
2016-05-24T03:55:21.773Z,79.22
2016-05-24T03:56:21.775Z,78.93
2016-05-24T03:57:21.809Z,79.13
2016-05-24T03:58:21.796Z,78.55
2016-05-24T03:59:21.798Z,78.93
2016-05-24T04:00:22.473Z,78.64
2016-05-24T04:01:21.835Z,78.36
2016-05-24T04:02:21.822Z,78.45
2016-05-24T04:03:21.840Z,78.45
2016-05-24T04:04:21.843Z,78.45
2016-05-24T04:05:21.846Z,79.03
2016-05-24T04:06:21.864Z,79.13
2016-05-24T04:07:21.414Z,78.64
2016-05-24T04:08:21.885Z,78.93
2016-05-24T04:09:21.919Z,79.13
2016-05-24T04:10:22.109Z,78.64
2016-05-24T04:11:21.972Z,78.36
2016-05-24T04:12:22.130Z,78.45
2016-05-24T04:13:21.867Z,78.45
2016-05-24T04:14:21.963Z,78.27
2016-05-24T04:15:22.419Z,78.36
2016-05-24T04:16:22.267Z,78.36
2016-05-24T04:17:36.050Z,78.17
2016-05-24T04:18:21.991Z,78.45
2016-05-24T04:19:21.993Z,78.45
2016-05-24T04:20:22.010Z,78.36
2016-05-24T04:21:22.014Z,78.27
2016-05-24T04:22:22.016Z,78.27
2016-05-24T04:23:22.223Z,78.45
2016-05-24T04:24:22.069Z,78.27
2016-05-24T04:25:22.259Z,78.55
2016-05-24T04:26:22.043Z,78.17
2016-05-24T04:27:22.154Z,78.45
2016-05-24T04:28:22.065Z,78.3
2016-05-24T04:29:22.067Z,78.27
2016-05-24T04:30:22.148Z,78.27
2016-05-24T04:31:22.103Z,78.17
2016-05-24T04:32:21.950Z,78.07
2016-05-24T04:33:22.109Z,77.88
2016-05-24T04:34:22.112Z,77.78
2016-05-24T04:35:22.333Z,78.07
2016-05-24T04:36:22.148Z,78.02
2016-05-24T04:37:22.541Z,77.92
2016-05-24T04:38:22.169Z,77.69
2016-05-24T04:39:22.172Z,77.97
2016-05-24T04:40:22.175Z,77.82
2016-05-24T04:41:22.177Z,77.82
2016-05-24T04:42:22.383Z,77.92
2016-05-24T04:43:22.197Z,77.73
2016-05-24T04:44:22.451Z,77.63
2016-05-24T04:45:22.453Z,77.44
2016-05-24T04:46:36.316Z,77.25
2016-05-24T04:47:36.318Z,76.86
2016-05-24T04:48:22.274Z,77.34
2016-05-24T04:50:36.374Z,77.25
2016-05-24T04:51:22.283Z,76.86
2016-05-24T04:52:22.301Z,77.25
2016-05-24T04:53:22.303Z,77.44
2016-05-24T04:54:22.149Z,76.57
2016-05-24T04:55:22.527Z,77.25
2016-05-24T04:56:22.343Z,77
2016-05-24T04:57:22.330Z,77.19
2016-05-24T04:58:22.598Z,77.29
2016-05-24T04:59:21.881Z,77.29
2016-05-24T05:00:22.651Z,77.19
2016-05-24T05:01:22.403Z,77.29
2016-05-24T05:02:22.406Z,77
2016-05-24T05:03:22.409Z,76.9
2016-05-24T05:04:22.817Z,76.62
2016-05-24T05:05:22.414Z,76.52
2016-05-24T05:06:22.634Z,77.19
2016-05-24T05:07:22.637Z,76.81
2016-05-24T05:08:22.453Z,76.81
2016-05-24T05:09:22.456Z,76.62
2016-05-24T05:10:22.489Z,76.23
2016-05-24T05:11:22.711Z,76.14
2016-05-24T05:12:22.495Z,76.14
2016-05-24T05:13:22.498Z,76.04
2016-05-24T05:14:22.703Z,76.14
2016-05-24T05:15:22.925Z,76.14
2016-05-24T05:16:22.536Z,76.32
2016-05-24T05:17:22.539Z,75.98
2016-05-24T05:18:22.542Z,75.89
2016-05-24T05:19:22.561Z,75.98
2016-05-24T05:20:22.563Z,75.31
2016-05-24T05:21:22.582Z,74.93
2016-05-24T05:22:22.600Z,74.93
2016-05-24T05:23:22.603Z,75.02
2016-05-24T05:24:22.823Z,75.21
2016-05-24T05:25:22.811Z,75.02
2016-05-24T05:26:23.080Z,75.02
2016-05-24T05:27:22.426Z,75.21
2016-05-24T05:28:22.678Z,74.83
2016-05-24T05:31:22.702Z,74.19
2016-05-24T05:32:36.783Z,74.68
2016-05-24T05:33:22.927Z,74.29
2016-05-24T05:34:22.742Z,73.33
2016-05-24T05:35:22.728Z,73.81
2016-05-24T05:36:22.748Z,73.72
2016-05-24T05:37:22.734Z,73.37
2016-05-24T05:38:23.002Z,73.56
2016-05-24T05:39:22.802Z,73.27
2016-05-24T05:40:22.805Z,73.18
2016-05-24T05:41:22.792Z,73.08
2016-05-24T05:42:22.825Z,72.99
2016-05-24T05:43:22.844Z,72.54
2016-05-24T05:44:22.847Z,72.16
2016-05-24T05:45:22.693Z,71.77
2016-05-24T05:47:22.854Z,71.96
2016-05-24T05:48:23.076Z,71.77
2016-05-24T05:49:22.970Z,71.67
2016-05-24T05:50:22.878Z,71.67
2016-05-24T05:51:22.913Z,71.67
2016-05-24T05:52:22.915Z,71.58
2016-05-24T05:53:22.933Z,71.58
2016-05-24T05:54:23.013Z,71.87
2016-05-24T05:55:23.641Z,71.77
2016-05-24T05:56:23.207Z,71.58
2016-05-24T05:57:23.007Z,71.29
2016-05-24T05:58:22.540Z,71.29
2016-05-24T05:59:23.027Z,71.77
2016-05-24T06:00:22.859Z,71.77
2016-05-24T06:01:23.032Z,71.29
2016-05-24T06:02:23.035Z,71.19
2016-05-24T06:03:22.897Z,71.1
2016-05-24T06:04:23.260Z,71.1
2016-05-24T06:05:23.481Z,71.19
2016-05-24T06:06:22.859Z,71.58
2016-05-24T06:07:23.127Z,71.19
2016-05-24T06:08:23.114Z,71.19
2016-05-24T06:09:23.132Z,71.29
2016-05-24T07:13:17.631Z,67.45
2016-05-24T07:14:17.696Z,67.16
2016-05-24T07:15:17.651Z,66.97
2016-05-24T07:16:17.935Z,66.97
2016-05-24T07:17:17.750Z,66.68
2016-05-24T07:18:17.753Z,66.78
2016-05-24T07:19:32.211Z,67.35
2016-05-24T07:20:17.992Z,67.16
2016-05-24T07:21:17.792Z,67.26
2016-05-24T07:22:17.905Z,67.16
2016-05-24T07:23:18.000Z,67.16
2016-05-24T07:24:18.144Z,66.78
2016-05-24T07:25:18.038Z,67.07
2016-05-24T07:26:17.978Z,66.01
2016-05-24T07:27:17.933Z,66.49
2016-05-24T07:28:18.171Z,66.58
2016-05-24T07:29:18.174Z,66.3
2016-05-24T07:30:18.004Z,66.2
2016-05-24T07:31:18.022Z,66.2
2016-05-24T07:32:18.024Z,66.58
2016-05-24T07:33:18.043Z,66.2
2016-05-24T07:34:18.577Z,65.91
2016-05-24T07:35:17.862Z,66.3
2016-05-24T07:36:18.176Z,65.72
2016-05-24T07:38:18.276Z,65.81
2016-05-24T07:39:18.138Z,66.58
2016-05-24T07:40:17.968Z,66.2
2016-05-24T07:41:18.237Z,67.07
2016-05-24T07:42:18.051Z,67.16
2016-05-24T07:43:18.617Z,66.58
2016-05-24T07:44:18.370Z,66.58
2016-05-24T07:45:18.278Z,66.88
2016-05-24T07:46:18.126Z,66.97
2016-05-24T07:47:18.222Z,65.81
2016-05-24T07:48:18.083Z,66.01
2016-05-24T07:49:18.353Z,65.91
2016-05-24T07:50:20.933Z,65.53
2016-05-24T07:51:18.608Z,65.91
2016-05-24T07:52:18.314Z,65.63
2016-05-24T07:53:18.238Z,65.91
2016-05-24T07:54:18.334Z,66.2
2016-05-24T07:55:18.915Z,65.81
2016-05-24T07:56:18.355Z,65.37
2016-05-24T07:57:18.108Z,65.56
2016-05-24T07:58:18.267Z,65.53
2016-05-24T07:59:18.722Z,65.27
2016-05-24T08:00:19.710Z,65.27
2016-05-24T08:01:18.259Z,65.17
2016-05-24T08:02:18.449Z,65.85
2016-05-24T08:04:18.299Z,66.14
2016-05-24T08:05:20.411Z,66.24
2016-05-24T08:06:18.366Z,65.17
2016-05-24T08:07:18.385Z,65.17
2016-05-24T08:08:18.340Z,64.98
2016-05-24T08:09:18.249Z,64.5
2016-05-24T08:10:18.893Z,64.31
2016-05-24T08:11:18.709Z,64.12
2016-05-24T08:12:18.789Z,63.92
2016-05-24T08:13:18.354Z,64.02
2016-05-24T08:15:19.890Z,64.05
2016-05-24T08:16:18.503Z,63.76
2016-05-24T08:17:18.490Z,64.25
2016-05-24T08:18:18.681Z,63.47
2016-05-24T08:19:18.855Z,63.38
2016-05-24T08:20:20.513Z,63.34
2016-05-24T08:21:18.610Z,64.25
2016-05-24T08:22:19.004Z,64.15
2016-05-24T08:23:18.631Z,64.05
2016-05-24T08:24:18.869Z,64.34
2016-05-24T08:25:18.575Z,64.73
2016-05-24T08:26:32.782Z,62.99
2016-05-24T08:27:18.954Z,63.09
2016-05-24T08:28:18.691Z,63.09
2016-05-24T08:29:18.694Z,62.99
2016-05-24T08:30:19.275Z,62.7
2016-05-24T08:31:18.715Z,63.09
2016-05-24T08:32:18.843Z,62.8
2016-05-24T08:33:19.096Z,62.51
2016-05-24T08:34:19.020Z,62.41
2016-05-24T08:35:20.023Z,62.6
2016-05-24T08:36:19.197Z,62.45
2016-05-24T08:37:32.890Z,62.35
2016-05-24T08:38:19.109Z,62.35
2016-05-24T08:39:18.815Z,62.06
2016-05-24T08:40:19.161Z,62.25
2016-05-24T08:41:18.960Z,62.93
2016-05-24T08:42:18.870Z,62.06
2016-05-24T08:43:32.923Z,62.63
2016-05-24T08:44:19.126Z,62.35
2016-05-24T08:45:20.737Z,62.73
2016-05-24T08:46:19.021Z,62.35
2016-05-24T08:47:18.976Z,62.63
2016-05-24T08:48:19.558Z,62.63
2016-05-24T08:49:18.997Z,62.83
2016-05-24T08:50:20.516Z,63.02
2016-05-24T08:51:19.238Z,62.6
2016-05-24T08:52:19.022Z,62.93
2016-05-24T08:53:19.039Z,62.93
2016-05-24T08:54:18.886Z,62.9
2016-05-24T08:55:20.061Z,62.15
2016-05-24T08:56:19.360Z,62.45
2016-05-24T08:57:19.286Z,62.83
2016-05-24T08:58:19.178Z,62.83
2016-05-24T08:59:19.244Z,63.12
2016-05-24T09:00:22.105Z,63.21
2016-05-24T09:01:33.361Z,62.93
2016-05-24T09:02:19.361Z,62.54
2016-05-24T09:03:19.113Z,62.54
2016-05-24T09:04:19.117Z,62.38
2016-05-24T09:05:20.713Z,62.09
2016-05-24T09:06:19.152Z,61.32
2016-05-24T09:07:19.265Z,62.09
2016-05-24T09:08:19.221Z,62.18
2016-05-24T09:10:20.929Z,60.93
2016-05-24T09:11:19.057Z,60.83
2016-05-24T09:12:19.232Z,60.74
2016-05-24T09:13:19.235Z,60.86
2016-05-24T09:14:19.456Z,60.48
2016-05-24T09:15:20.818Z,60.19
2016-05-24T09:16:19.165Z,59.8
2016-05-24T09:17:19.307Z,59.61
2016-05-24T09:18:19.170Z,59.52
2016-05-24T09:19:19.344Z,59.71
2016-05-24T09:20:21.284Z,59.61
2016-05-24T09:21:19.443Z,60
2016-05-24T09:22:19.415Z,59.8
2016-05-24T09:23:19.480Z,59.74
2016-05-24T09:24:19.451Z,60.41
2016-05-24T09:25:21.595Z,60.31
2016-05-24T09:26:19.457Z,60.03
2016-05-24T09:27:19.459Z,59.83
2016-05-24T09:28:19.821Z,60.13
2016-05-24T09:29:19.731Z,59.83
2016-05-24T09:30:21.108Z,59.83
2016-05-24T09:31:20.283Z,59.55
2016-05-24T09:32:20.177Z,59.64
2016-05-24T09:33:19.554Z,59.83
2016-05-24T09:34:19.932Z,59.93
2016-05-24T09:35:20.294Z,58.7
2016-05-24T09:36:33.907Z,58.9
2016-05-24T09:37:19.814Z,58.51
2016-05-24T09:38:19.864Z,58.39
2016-05-24T09:39:19.632Z,58.77
2016-05-24T09:40:20.479Z,58.19
2016-05-24T09:41:19.888Z,58.97
2016-05-24T09:42:20.109Z,59.45
2016-05-24T09:43:19.752Z,59.16
2016-05-24T09:44:19.724Z,59.93
2016-05-24T09:45:27.273Z,59.35
2016-05-24T09:46:20.651Z,59.16
2016-05-24T09:47:19.762Z,58.48
2016-05-24T09:48:20.423Z,58.58
2016-05-24T09:49:20.301Z,59.25
2016-05-24T09:50:22.224Z,59.06
2016-05-24T09:51:20.384Z,58.58
2016-05-24T09:52:19.855Z,58
2016-05-24T09:53:19.842Z,58.29
2016-05-24T09:55:21.222Z,58.29
2016-05-24T09:56:20.616Z,58.97
2016-05-24T09:57:20.212Z,58.68
2016-05-24T09:58:19.949Z,59.45
2016-05-24T09:59:19.952Z,60.13
2016-05-24T10:00:23.111Z,60.28
2016-05-24T10:01:20.411Z,60.1
2016-05-24T10:02:20.038Z,59.45
2016-05-24T10:03:20.353Z,59.32
2016-05-24T10:04:20.122Z,59.32
2016-05-24T10:07:20.065Z,59.03
2016-05-24T10:08:20.590Z,58.77
2016-05-24T10:09:20.223Z,58.29
2016-05-24T10:10:20.154Z,59.16
2016-05-24T10:11:20.461Z,58.87
2016-05-24T10:12:20.288Z,58.68
2016-05-24T10:13:20.393Z,58.1
2016-05-24T10:14:20.029Z,58.48
2016-05-24T10:15:21.898Z,59.25
2016-05-24T10:16:34.417Z,58.68
2016-05-24T10:17:20.464Z,58.68
2016-05-24T10:18:20.783Z,59.45
2016-05-24T10:19:20.444Z,59.06
2016-05-24T10:20:20.746Z,58.48
2016-05-24T10:21:20.439Z,57.42
2016-05-24T10:22:20.850Z,58.19
2016-05-24T10:23:20.510Z,58.87
2016-05-24T10:24:21.092Z,58.68
2016-05-24T10:25:22.923Z,57.9
2016-05-24T10:26:20.505Z,58.97
2016-05-24T10:27:34.606Z,58.48
2016-05-24T10:29:21.093Z,58.48
2016-05-24T10:31:20.599Z,58.48
2016-05-24T10:32:20.821Z,57.9
2016-05-24T10:33:20.699Z,58.07
2016-05-24T10:34:20.670Z,58.17
2016-05-24T10:35:22.392Z,57.87
2016-05-24T10:36:20.737Z,58.36
2016-05-24T10:37:21.693Z,58.45
2016-05-24T10:38:20.962Z,59.61
2016-05-24T10:39:20.715Z,59.13
2016-05-24T10:40:22.155Z,59.35
2016-05-24T10:41:21.017Z,58.39
2016-05-24T10:42:21.082Z,58.58
2016-05-24T10:43:20.350Z,57.23
2016-05-24T10:44:21.353Z,54.75
2016-05-24T10:45:22.106Z,56.39
2016-05-24T10:46:21.499Z,56.29
2016-05-24T10:47:21.627Z,56.2
2016-05-24T10:48:20.880Z,56.1
2016-05-24T10:49:21.195Z,55.62
2016-05-24T10:50:21.119Z,55.52
2016-05-24T10:51:20.903Z,55.81
2016-05-24T10:52:21.984Z,54.77
2016-05-24T10:53:20.971Z,55.35
2016-05-24T10:55:22.976Z,55.07
2016-05-24T10:56:21.010Z,54.97
2016-05-24T10:57:35.141Z,54.58
2016-05-24T10:58:21.438Z,54.39
2016-05-24T10:59:21.018Z,54.29
2016-05-24T11:00:23.068Z,54.8
2016-05-24T11:01:20.929Z,54.61
2016-05-24T11:04:21.110Z,54.41
2016-05-24T11:05:22.457Z,53.74
2016-05-24T11:06:21.490Z,53.16
2016-05-24T11:07:21.790Z,53.16
2016-05-24T11:08:21.918Z,51.93
2016-05-24T11:09:21.608Z,51.83
2016-05-24T11:10:21.220Z,52.19
2016-05-24T11:11:21.223Z,52.97
2016-05-24T11:12:21.647Z,53.06
2016-05-24T11:13:21.244Z,53.25
2016-05-24T11:14:21.667Z,53.06
2016-05-24T11:15:21.546Z,52.58
2016-05-24T11:16:35.722Z,53.16
2016-05-24T11:17:21.347Z,52.99
2016-05-24T11:18:21.664Z,51.32
2016-05-24T11:19:21.713Z,51.61
2016-05-24T11:20:22.044Z,51.71
2016-05-24T11:21:35.658Z,51.61
2016-05-24T11:22:21.471Z,51.32
2016-05-24T11:23:21.724Z,52.09
2016-05-24T11:24:21.805Z,52.97
2016-05-24T11:25:21.697Z,52.58
2016-05-24T11:26:21.482Z,53.16
2016-05-24T11:27:21.500Z,53.33
2016-05-24T11:28:21.502Z,53.91
2016-05-24T11:29:21.490Z,53.52
2016-05-24T11:30:21.977Z,54.29
2016-05-24T11:31:21.527Z,54.77
2016-05-24T11:32:21.732Z,54.68
2016-05-24T11:33:21.657Z,54.58
2016-05-24T11:34:21.441Z,53.91
2016-05-24T11:35:21.757Z,54.27
2016-05-24T11:36:21.446Z,54.94
2016-05-24T11:37:21.620Z,55.33
2016-05-24T11:38:21.686Z,55.42
2016-05-24T11:39:21.564Z,55.9
2016-05-24T11:40:21.817Z,55.71
2016-05-24T11:41:21.694Z,55.3
2016-05-24T11:42:21.697Z,55.3
2016-05-24T11:43:21.762Z,55.1
2016-05-24T11:44:21.717Z,55.49
2016-05-24T11:45:21.986Z,55.46
2016-05-24T11:46:21.988Z,56.14
2016-05-24T11:47:22.006Z,56.62
2016-05-24T11:48:22.494Z,56.14
2016-05-24T11:49:21.794Z,56.72
2016-05-24T11:50:21.922Z,56.24
2016-05-24T11:51:21.831Z,56.81
2016-05-24T11:52:22.066Z,56.62
2016-05-24T11:53:22.336Z,57.29
2016-05-24T11:54:21.886Z,56.62
2016-05-24T11:55:21.732Z,56.91
2016-05-24T11:56:22.235Z,56.72
2016-05-24T11:57:22.580Z,56.62
2016-05-24T11:58:22.193Z,57.2
2016-05-24T11:59:22.055Z,57.2
2016-05-24T12:00:22.698Z,57.29
2016-05-24T12:01:36.110Z,57.2
2016-05-24T12:02:22.157Z,57.2
2016-05-24T12:03:22.081Z,57.2
2016-05-24T12:04:22.381Z,56.91
2016-05-24T12:05:21.993Z,57.01
2016-05-24T12:06:22.137Z,57.29
2016-05-24T12:07:22.389Z,56.91
2016-05-24T12:08:36.160Z,58.07
2016-05-24T12:09:22.270Z,58.17
2016-05-24T12:10:22.319Z,58.36
2016-05-24T12:11:22.618Z,58.17
2016-05-24T12:12:22.137Z,57.2
2016-05-24T12:13:22.139Z,57.87
2016-05-24T12:14:22.158Z,58.65
2016-05-24T12:15:22.473Z,58.45
2016-05-24T12:16:22.241Z,58.55
2016-05-24T12:17:22.072Z,56.72
2016-05-24T12:18:22.465Z,56.62
2016-05-24T12:19:22.250Z,57.39
2016-05-24T12:20:22.283Z,56.81
2016-05-24T12:21:22.472Z,56.62
2016-05-24T12:22:23.148Z,56.62
2016-05-24T12:23:22.322Z,56.91
2016-05-24T12:24:22.528Z,56.43
2016-05-24T12:25:22.312Z,57.29
2016-05-24T12:26:22.347Z,57.01
2016-05-24T12:27:22.349Z,56.91
2016-05-24T12:28:22.351Z,56.72
2016-05-24T12:29:22.573Z,57.42
2016-05-24T12:30:22.091Z,57.23
2016-05-24T12:31:22.422Z,56.94
2016-05-24T12:32:22.988Z,56.74
2016-05-24T12:33:22.427Z,56.84
2016-05-24T12:34:22.227Z,56.94
2016-05-24T12:35:22.886Z,56.74
2016-05-24T12:36:22.483Z,56.65
2016-05-24T12:37:22.891Z,56.74
2016-05-24T12:38:22.535Z,56.77
2016-05-24T12:39:22.756Z,57.26
2016-05-24T12:40:22.649Z,57.32
2016-05-24T12:41:22.543Z,57.23
2016-05-24T12:42:22.795Z,57.62
2016-05-24T12:43:22.564Z,57.62
2016-05-24T12:44:22.581Z,58.29
2016-05-24T12:45:22.772Z,59.06
2016-05-24T12:46:22.963Z,59.55
2016-05-24T12:47:22.168Z,60
2016-05-24T12:48:22.686Z,60.19
2016-05-24T12:49:22.673Z,60
2016-05-24T12:50:22.755Z,60.1
2016-05-24T12:51:22.929Z,60.68
2016-05-24T12:52:22.761Z,60.58
2016-05-24T12:53:23.184Z,60.55
2016-05-24T12:54:23.000Z,60.26
2016-05-24T12:55:23.003Z,60.93
2016-05-24T12:56:23.755Z,60.74
2016-05-24T12:57:22.852Z,61.13
2016-05-24T12:58:23.072Z,61.99
2016-05-24T12:59:23.216Z,61.32
2016-05-24T13:00:22.860Z,61.99
2016-05-24T13:01:22.877Z,61.87
2016-05-24T13:02:22.958Z,60.9
2016-05-24T13:03:22.915Z,61.58
2016-05-24T13:04:22.885Z,62.06
2016-05-24T13:05:23.045Z,61.87
2016-05-24T13:06:23.157Z,62.06
2016-05-24T13:07:22.551Z,62.45
2016-05-24T13:08:23.084Z,62.54
2016-05-24T13:09:24.540Z,62.54
2016-05-24T13:10:22.964Z,62.45
2016-05-24T13:11:23.233Z,62.83
2016-05-24T13:12:22.985Z,62.25
2016-05-24T13:13:23.363Z,62.45
2016-05-24T13:14:24.523Z,62.28
2016-05-24T13:16:23.121Z,62.45
2016-05-24T13:17:23.264Z,62.48
2016-05-24T13:18:23.298Z,62.25
2016-05-24T13:19:25.301Z,61.96
2016-05-24T13:21:23.119Z,62.25
2016-05-24T13:22:23.169Z,62.45
2016-05-24T13:23:23.139Z,62.8
2016-05-24T13:24:37.236Z,63.5
2016-05-24T13:25:23.192Z,63.09
2016-05-24T13:26:23.241Z,62.99
2016-05-24T13:27:23.198Z,63.38
2016-05-24T13:28:23.201Z,63.38
2016-05-24T13:29:23.266Z,63.67
2016-05-24T13:30:23.175Z,63.38
2016-05-24T13:31:23.083Z,63.34
2016-05-24T13:32:23.461Z,63.92
2016-05-24T13:33:23.292Z,64.5
2016-05-24T13:34:23.779Z,64.79
2016-05-24T13:35:23.313Z,64.69
2016-05-24T13:36:23.394Z,64.5
2016-05-24T13:37:23.334Z,64.31
2016-05-24T13:38:23.555Z,65.24
2016-05-24T13:39:24.402Z,65.08
2016-05-24T13:40:23.654Z,65.27
2016-05-24T13:41:23.376Z,64.95
2016-05-24T13:42:23.395Z,65.14
2016-05-24T13:43:23.443Z,66.01
2016-05-24T13:44:23.493Z,64.95
2016-05-24T13:45:23.589Z,65.24
2016-05-24T13:46:23.436Z,65.72
2016-05-24T13:47:23.440Z,65.63
2016-05-24T13:49:23.475Z,65.63
2016-05-24T13:50:23.478Z,66.1
2016-05-24T13:51:23.497Z,66.1
2016-05-24T13:52:23.639Z,66.1
2016-05-24T13:53:23.533Z,65.69
2016-05-24T13:55:23.601Z,66.27
2016-05-24T13:56:23.572Z,66.46
2016-05-24T13:57:23.575Z,66.07
2016-05-24T13:58:23.608Z,66.55
2016-05-24T13:59:23.643Z,66.27
2016-05-24T14:00:24.021Z,66.65
2016-05-24T14:01:23.836Z,66.55
2016-05-24T14:02:23.636Z,66.55
2016-05-24T14:03:23.638Z,66.46
2016-05-24T14:04:23.843Z,66.94
2016-05-24T14:05:23.675Z,66.74
2016-05-24T14:06:23.694Z,66.84
2016-05-24T14:07:37.758Z,66.94
2016-05-24T14:08:23.715Z,67.03
2016-05-24T14:09:23.717Z,66.94
2016-05-24T14:10:23.720Z,67.8
2016-05-24T14:11:23.582Z,67.13
2016-05-24T14:12:23.740Z,67.86
2016-05-24T14:13:23.759Z,67.86
2016-05-24T14:14:23.792Z,67
2016-05-24T14:15:24.717Z,67.19
2016-05-24T14:16:23.798Z,67.1
2016-05-24T14:17:24.004Z,67.38
2016-05-24T14:18:24.023Z,67.68
2016-05-24T14:19:23.853Z,67.1
2016-05-24T14:20:23.903Z,67.1
2016-05-24T14:21:23.859Z,67
2016-05-24T14:22:23.862Z,68.19
2016-05-24T14:23:23.880Z,67.58
2016-05-24T14:24:24.289Z,67.71